Flint, MI (48504)

12:42 PM EDT on July 24, 2016 (GMT -0400)
Flint Twp / Dye Elementary | | Change Station

Elev 741 ft 43.01 °N, 83.76 °W | Updated 4 minutes ago

Light Rain
Light Rain
72.5 °F
Feels Like 72.5 °F
N
2.2
Wind Variable Wind from ESE

Today
High -- | Low -- °F
--% Chance of Precip.
Yesterday
High -- | Low -- °F
Precip. -- in
Pressure 29.94 in
Visibility 10.0 miles
Clouds Mostly Cloudy 4400 ft
Overcast 5000 ft
Dew Point 69 °F
Humidity 90%
Rainfall 0.18 in
Snow Depth Not available.
6:18 AM 9:04 PM
Waning Gibbous, 75% visible
METAR KFNT 241553Z 18005KT 10SM -RA BKN044 OVC050 24/22 A2995 RMK AO2 SLP138 P0006 T02390217
Pressure 29.94 in
Visibility 10.0 miles
Clouds Mostly Cloudy 4400 ft
Overcast 5000 ft
Dew Point 69 °F
Humidity 90%
Rainfall 0.18 in
Snow Depth Not available.
6:18 AM 9:04 PM
Waning Gibbous, 75% visible
METAR KFNT 241553Z 18005KT 10SM -RA BKN044 OVC050 24/22 A2995 RMK AO2 SLP138 P0006 T02390217

10-Day Weather Forecast

Almanac

Astronomy

Jul. 24, 2016 Rise Set
Actual Time
Civil Twilight
Nautical Twilight
Astronomical Twilight
Moon
Length of Visible Light
Length of Day
Tomorrow will be .
, % of the Moon is Illuminated

Today's Extremes

State Highs State Lows

Community

WunderPhotos

Upload Photos

1,927,121 photos uploaded!

WunderBlog® & News

Nearby

Air Quality

  Air Quality AQ Index Pollutant
Not available.

Snow Depth

Station Depth Elevation

Earthquake Activity

City Distance Mag. Time & Date
Minimum magnitude displayed is 2.5.

Coastal Water Temperatures

Place Temperature

Stations

Nearby Weather Stations

Station Location Temp. Windchill Dew Point Humidity Wind Precip. Elev Updated Type
                   

Watches & Warnings

There are currently no watches in effect.